< < Back
Terminal Aerodrome Forecast


Current Version              Previous Versions:   1  2  3  4  5  6  7  8  9  

Terminal Aerodrome Forecast

875
FTUS42 KJAX 231100
TAFSSI
TAF
KSSI 231121Z 2312/2412 VRB04KT P6SM SCT020
     FM231300 23004KT P6SM SCT025
     FM231700 15009KT P6SM SCT030=

Latest METAR

288
SAUS70 KWBC 231400 RRM
MTRSSI
METAR KSSI 231353Z AUTO 25006KT 10SM BKN017 28/23 A3008 RMK AO2 SLP187
T02830233


USA.gov is the U.S. government's official web portal to all federal, state and local government web resources and services.